Time;durP1;ratioP1;P1;durP2;ratioP2;P2;SDS_P1;SDS_P2;PMS_P1;PMS_P2;Temp;Humidity;BMP_temperature;BMP_pressure;BME280_temperature;BME280_humidity;BME280_pressure;Samples;Min_cycle;Max_cycle;Signal;HPM_P1;HPM_P2
2023/04/09 00:01:23;;;;;;;4.68;2.80;;;;;;;;;;5009332;28;20029;-80
2023/04/09 00:03:49;;;;;;;5.53;2.75;;;;;;;;;;5006090;28;20564;-80
2023/04/09 00:06:15;;;;;;;6.38;3.00;;;;;;;;;;5009508;28;20022;-80
2023/04/09 00:08:41;;;;;;;5.63;3.47;;;;;;;;;;5001218;28;20540;-79
2023/04/09 00:11:07;;;;;;;4.85;2.92;;;;;;;;;;5009407;28;20619;-80
2023/04/09 00:13:33;;;;;;;3.78;2.63;;;;;;;;;;5006115;28;20032;-79
2023/04/09 00:15:59;;;;;;;5.53;2.70;;;;;;;;;;5006927;28;20031;-80
2023/04/09 00:18:25;;;;;;;5.10;2.50;;;;;;;;;;5006781;28;20030;-80
2023/04/09 00:20:51;;;;;;;4.88;3.05;;;;;;;;;;5001006;28;20103;-79
2023/04/09 00:23:17;;;;;;;4.20;2.60;;;;;;;;;;4989090;28;20038;-79
2023/04/09 00:25:43;;;;;;;5.50;2.60;;;;;;;;;;4986954;28;20046;-80
2023/04/09 00:28:09;;;;;;;5.25;2.90;;;;;;;;;;5000976;28;20091;-80
2023/04/09 00:30:35;;;;;;;5.78;3.33;;;;;;;;;;5003915;28;20080;-80
2023/04/09 00:33:01;;;;;;;5.03;2.97;;;;;;;;;;5008045;28;20037;-80
2023/04/09 00:35:27;;;;;;;7.40;3.78;;;;;;;;;;5007105;28;20026;-80
2023/04/09 00:37:53;;;;;;;5.53;2.85;;;;;;;;;;5004537;28;20034;-80
2023/04/09 00:40:19;;;;;;;5.72;3.15;;;;;;;;;;5005865;28;20026;-80
2023/04/09 00:42:46;;;;;;;4.65;3.00;;;;;;;;;;4996799;28;20042;-81
2023/04/09 00:45:12;;;;;;;3.03;2.35;;;;;;;;;;5009449;28;20115;-82
2023/04/09 00:47:38;;;;;;;7.38;3.28;;;;;;;;;;5009502;28;20049;-81
2023/04/09 00:50:05;;;;;;;5.10;3.10;;;;;;;;;;5002845;28;20026;-81
2023/04/09 00:52:31;;;;;;;6.53;3.03;;;;;;;;;;5005871;28;20053;-79
2023/04/09 00:55:01;;;;;;;6.20;2.78;;;;;;;;;;5002864;28;20038;-80
2023/04/09 00:57:27;;;;;;;5.47;3.08;;;;;;;;;;5006803;28;20113;-80
2023/04/09 00:59:53;;;;;;;4.28;2.78;;;;;;;;;;5000856;28;20547;-80
2023/04/09 01:02:19;;;;;;;6.00;3.03;;;;;;;;;;5004119;28;20537;-81
2023/04/09 01:04:45;;;;;;;6.32;2.85;;;;;;;;;;5007852;28;20057;-80
2023/04/09 01:07:16;;;;;;;5.03;2.80;;;;;;;;;;5008428;28;20040;-81
2023/04/09 01:09:47;;;;;;;5.10;2.92;;;;;;;;;;5007313;28;20026;-80
2023/04/09 01:12:25;;;;;;;4.82;3.10;;;;;;;;;;5001266;28;20096;-80
2023/04/09 01:14:56;;;;;;;2.95;2.65;;;;;;;;;;5000186;28;20040;-80
2023/04/09 01:17:25;;;;;;;7.32;2.70;;;;;;;;;;5000267;28;20022;-80
2023/04/09 01:19:58;;;;;;;7.05;2.55;;;;;;;;;;5001542;28;20513;-81
2023/04/09 01:22:30;;;;;;;5.20;3.30;;;;;;;;;;5006626;28;20041;-80
2023/04/09 01:25:02;;;;;;;5.00;3.08;;;;;;;;;;5003981;28;20033;-80
2023/04/09 01:27:28;;;;;;;;;;;;;;;;;;5002363;28;20381;-80
2023/04/09 01:29:54;;;;;;;5.85;2.72;;;;;;;;;;5008266;28;19913;-81
2023/04/09 01:32:20;;;;;;;5.22;2.90;;;;;;;;;;5001399;28;20490;-80
2023/04/09 01:34:47;;;;;;;6.45;3.65;;;;;;;;;;5008802;28;20029;-81
2023/04/09 01:37:15;;;;;;;6.10;3.75;;;;;;;;;;5005637;28;20500;-80
2023/04/09 01:39:41;;;;;;;6.80;3.95;;;;;;;;;;5003470;28;20504;-80
2023/04/09 01:42:10;;;;;;;4.63;3.13;;;;;;;;;;5004329;28;20038;-81
2023/04/09 01:44:37;;;;;;;6.80;3.80;;;;;;;;;;5007824;28;20520;-81
2023/04/09 01:47:05;;;;;;;4.72;3.35;;;;;;;;;;5007767;28;20045;-79
2023/04/09 01:49:31;;;;;;;5.55;2.95;;;;;;;;;;4998221;28;20038;-80
2023/04/09 01:51:57;;;;;;;3.92;2.72;;;;;;;;;;4994373;28;20030;-80
2023/04/09 01:54:23;;;;;;;5.82;3.00;;;;;;;;;;4999442;28;20088;-80
2023/04/09 01:56:49;;;;;;;8.68;3.70;;;;;;;;;;5006150;28;20079;-80
2023/04/09 01:59:15;;;;;;;8.05;3.38;;;;;;;;;;5006447;28;20489;-80
2023/04/09 02:01:49;;;;;;;6.35;3.65;;;;;;;;;;4996020;28;20038;-80
2023/04/09 02:04:19;;;;;;;5.72;3.95;;;;;;;;;;5006724;28;20069;-81
2023/04/09 02:06:53;;;;;;;6.93;3.40;;;;;;;;;;4998642;28;20037;-81
2023/04/09 02:09:20;;;;;;;6.95;3.50;;;;;;;;;;5000124;28;20025;-80
2023/04/09 02:11:47;;;;;;;9.45;3.67;;;;;;;;;;4990558;28;20029;-81
2023/04/09 02:14:13;;;;;;;6.10;3.00;;;;;;;;;;5004698;28;20088;-81
2023/04/09 02:16:41;;;;;;;5.00;3.03;;;;;;;;;;5001902;28;20077;-81
2023/04/09 02:19:07;;;;;;;8.60;4.50;;;;;;;;;;5005939;28;20591;-81
2023/04/09 02:21:33;;;;;;;6.75;3.65;;;;;;;;;;5004912;28;20041;-81
2023/04/09 02:23:59;;;;;;;7.28;3.53;;;;;;;;;;5003545;28;20038;-80
2023/04/09 02:26:25;;;;;;;8.35;4.28;;;;;;;;;;4997651;28;20077;-81
2023/04/09 02:28:51;;;;;;;5.50;2.97;;;;;;;;;;5005479;28;20034;-81
2023/04/09 02:31:17;;;;;;;5.97;3.35;;;;;;;;;;5000495;28;20366;-81
2023/04/09 02:33:42;;;;;;;5.10;3.22;;;;;;;;;;5001314;28;20037;-81
2023/04/09 02:36:12;;;;;;;6.45;3.60;;;;;;;;;;4996036;28;20035;-81
2023/04/09 02:38:41;;;;;;;6.85;3.53;;;;;;;;;;5003416;28;20511;-80
2023/04/09 02:41:07;;;;;;;7.57;3.03;;;;;;;;;;5006113;28;20053;-80
2023/04/09 02:43:32;;;;;;;5.05;3.22;;;;;;;;;;5004135;28;20108;-81
2023/04/09 02:45:59;;;;;;;5.80;3.80;;;;;;;;;;4996178;28;20033;-81
2023/04/09 02:48:25;;;;;;;6.22;3.22;;;;;;;;;;5004848;28;20094;-81
2023/04/09 02:50:51;;;;;;;8.13;3.22;;;;;;;;;;5007201;28;20061;-81
2023/04/09 02:53:17;;;;;;;6.32;3.80;;;;;;;;;;4992223;28;20044;-80
2023/04/09 02:55:43;;;;;;;6.32;3.50;;;;;;;;;;5001827;28;20048;-81
2023/04/09 02:58:09;;;;;;;5.38;2.80;;;;;;;;;;5001547;28;20386;-80
2023/04/09 03:00:35;;;;;;;6.93;4.13;;;;;;;;;;5007658;28;20033;-80
2023/04/09 03:03:01;;;;;;;6.63;3.53;;;;;;;;;;4999819;28;20037;-81
2023/04/09 03:05:27;;;;;;;7.20;3.60;;;;;;;;;;5000993;28;20076;-80
2023/04/09 03:07:53;;;;;;;7.68;3.25;;;;;;;;;;5000982;28;20481;-81
2023/04/09 03:10:19;;;;;;;6.25;3.80;;;;;;;;;;5005595;28;20033;-80
2023/04/09 03:12:46;;;;;;;5.68;3.47;;;;;;;;;;5005897;28;20030;-81
2023/04/09 03:15:12;;;;;;;4.97;3.17;;;;;;;;;;5006282;28;20057;-83
2023/04/09 03:17:38;;;;;;;8.63;3.60;;;;;;;;;;4995410;28;20030;-81
2023/04/09 03:20:05;;;;;;;6.03;3.80;;;;;;;;;;4997409;28;20149;-80
2023/04/09 03:22:35;;;;;;;6.80;3.63;;;;;;;;;;5002922;28;20057;-80
2023/04/09 03:25:01;;;;;;;5.82;3.60;;;;;;;;;;5000681;28;20408;-80
2023/04/09 03:27:27;;;;;;;6.63;3.28;;;;;;;;;;4996461;28;20030;-80
2023/04/09 03:29:55;;;;;;;10.20;3.83;;;;;;;;;;5001159;28;20025;-79
2023/04/09 03:32:21;;;;;;;8.63;3.70;;;;;;;;;;5003209;28;20760;-80
2023/04/09 03:34:47;;;;;;;5.28;3.35;;;;;;;;;;4998565;28;20026;-79
2023/04/09 03:37:13;;;;;;;6.43;3.15;;;;;;;;;;5004827;28;20026;-80
2023/04/09 03:39:39;;;;;;;7.38;2.90;;;;;;;;;;5004844;28;20048;-80
2023/04/09 03:42:05;;;;;;;4.95;3.17;;;;;;;;;;5008355;28;20026;-80
2023/04/09 03:44:31;;;;;;;5.05;3.00;;;;;;;;;;5015024;28;20488;-81
2023/04/09 03:46:57;;;;;;;8.32;3.83;;;;;;;;;;5019236;28;20033;-80
2023/04/09 03:49:23;;;;;;;5.28;3.15;;;;;;;;;;5015270;28;20041;-80
2023/04/09 03:51:49;;;;;;;6.18;3.67;;;;;;;;;;5022115;28;20037;-81
2023/04/09 03:54:15;;;;;;;9.13;3.30;;;;;;;;;;5019225;28;20042;-81
2023/04/09 03:56:41;;;;;;;8.05;3.83;;;;;;;;;;5022212;28;20061;-79
2023/04/09 03:59:07;;;;;;;5.30;3.00;;;;;;;;;;5015793;28;20096;-80
2023/04/09 04:01:33;;;;;;;6.80;3.10;;;;;;;;;;5020123;28;20125;-79
2023/04/09 04:03:59;;;;;;;6.65;3.45;;;;;;;;;;5030205;28;20109;-80
2023/04/09 04:06:26;;;;;;;6.82;3.20;;;;;;;;;;5029490;28;20029;-81
2023/04/09 04:08:52;;;;;;;5.35;3.05;;;;;;;;;;5021687;28;20104;-81
2023/04/09 04:11:18;;;;;;;4.88;2.80;;;;;;;;;;5024709;28;20072;-80
2023/04/09 04:13:44;;;;;;;5.50;3.40;;;;;;;;;;5027176;28;20037;-79
2023/04/09 04:16:10;;;;;;;4.05;2.85;;;;;;;;;;5027441;28;20504;-80
2023/04/09 04:18:39;;;;;;;4.28;2.70;;;;;;;;;;5018101;28;20414;-81
2023/04/09 04:21:11;;;;;;;6.45;3.33;;;;;;;;;;5010924;28;20022;-82
2023/04/09 04:23:37;;;;;;;5.93;3.22;;;;;;;;;;5025848;28;20032;-72
2023/04/09 04:26:08;;;;;;;5.13;2.55;;;;;;;;;;5025429;28;20022;-78
2023/04/09 04:28:35;;;;;;;4.38;3.00;;;;;;;;;;5017633;28;20030;-78
2023/04/09 04:31:01;;;;;;;3.88;2.85;;;;;;;;;;5020617;28;20293;-78
2023/04/09 04:33:27;;;;;;;11.10;3.50;;;;;;;;;;5025566;28;20033;-80
2023/04/09 04:35:53;;;;;;;6.55;4.05;;;;;;;;;;5026754;28;20027;-80
2023/04/09 04:38:19;;;;;;;7.07;3.88;;;;;;;;;;5007920;28;20583;-79
2023/04/09 04:40:45;;;;;;;9.63;4.80;;;;;;;;;;5008277;28;20041;-79
2023/04/09 04:43:11;;;;;;;18.70;4.07;;;;;;;;;;5006287;28;20468;-79
2023/04/09 04:45:37;;;;;;;6.20;3.20;;;;;;;;;;4996894;28;20034;-79
2023/04/09 04:48:03;;;;;;;10.43;3.70;;;;;;;;;;4992163;28;20080;-79
2023/04/09 04:50:29;;;;;;;7.93;3.78;;;;;;;;;;4989276;28;20069;-80
2023/04/09 04:52:55;;;;;;;7.25;3.47;;;;;;;;;;5004860;28;20045;-78
2023/04/09 04:55:21;;;;;;;5.97;3.00;;;;;;;;;;5007339;28;20088;-81
2023/04/09 04:57:47;;;;;;;6.35;3.17;;;;;;;;;;5010130;28;20034;-79
2023/04/09 05:00:13;;;;;;;7.75;3.63;;;;;;;;;;5009408;28;20014;-79
2023/04/09 05:02:39;;;;;;;6.68;3.53;;;;;;;;;;5007537;28;20105;-79
2023/04/09 05:05:05;;;;;;;6.68;3.72;;;;;;;;;;5004164;28;20485;-79
2023/04/09 05:07:33;;;;;;;5.55;3.17;;;;;;;;;;5006241;28;20026;-79
2023/04/09 05:09:59;;;;;;;6.97;3.58;;;;;;;;;;4990248;28;20033;-78
2023/04/09 05:12:25;;;;;;;7.63;3.28;;;;;;;;;;5002060;28;20025;-77
2023/04/09 05:14:51;;;;;;;5.40;2.85;;;;;;;;;;4998761;28;20041;-77
2023/04/09 05:17:17;;;;;;;7.05;3.20;;;;;;;;;;5005402;28;20026;-77
2023/04/09 05:19:43;;;;;;;8.07;3.60;;;;;;;;;;5001992;28;20022;-74
2023/04/09 05:22:09;;;;;;;5.75;3.20;;;;;;;;;;5001411;28;20136;-77
2023/04/09 05:24:35;;;;;;;6.93;3.67;;;;;;;;;;5005115;28;20034;-77
2023/04/09 05:27:01;;;;;;;6.63;2.60;;;;;;;;;;4993212;28;20030;-77
2023/04/09 05:29:27;;;;;;;4.35;3.00;;;;;;;;;;4997214;28;20022;-77
2023/04/09 05:31:53;;;;;;;7.72;3.40;;;;;;;;;;4999285;28;20029;-77
2023/04/09 05:34:19;;;;;;;5.20;3.03;;;;;;;;;;4997546;28;20034;-78
2023/04/09 05:36:45;;;;;;;5.10;3.30;;;;;;;;;;4997730;28;20076;-79
2023/04/09 05:39:11;;;;;;;4.78;3.03;;;;;;;;;;4992575;28;20040;-78
2023/04/09 05:41:37;;;;;;;8.80;2.90;;;;;;;;;;4980745;28;20529;-77
2023/04/09 05:44:03;;;;;;;6.05;3.20;;;;;;;;;;4996825;28;20072;-77
2023/04/09 05:46:30;;;;;;;6.57;3.15;;;;;;;;;;4996872;28;20856;-76
2023/04/09 05:48:56;;;;;;;4.40;2.72;;;;;;;;;;4995531;28;20608;-78
2023/04/09 05:51:22;;;;;;;6.32;3.33;;;;;;;;;;4997006;28;20097;-78
2023/04/09 05:53:48;;;;;;;4.40;2.63;;;;;;;;;;4994396;28;20081;-77
2023/04/09 05:56:16;;;;;;;6.25;3.03;;;;;;;;;;4997792;28;20022;-77
2023/04/09 05:58:42;;;;;;;8.23;2.92;;;;;;;;;;4997639;28;20037;-77
2023/04/09 06:01:09;;;;;;;4.00;2.47;;;;;;;;;;4994018;28;20038;-77
2023/04/09 06:03:35;;;;;;;3.47;2.67;;;;;;;;;;4997045;28;20030;-77
2023/04/09 06:06:01;;;;;;;5.07;2.80;;;;;;;;;;4996802;28;20023;-77
2023/04/09 06:08:26;;;;;;;5.05;3.03;;;;;;;;;;4996863;28;20512;-77
2023/04/09 06:10:52;;;;;;;4.88;3.13;;;;;;;;;;4994809;28;20262;-78
2023/04/09 06:13:18;;;;;;;5.30;2.90;;;;;;;;;;4990843;28;20034;-78
2023/04/09 06:15:44;;;;;;;3.55;2.40;;;;;;;;;;4989865;28;20065;-79
2023/04/09 06:18:10;;;;;;;4.97;2.88;;;;;;;;;;4997594;28;20045;-79
2023/04/09 06:20:36;;;;;;;6.70;3.00;;;;;;;;;;4995785;28;20485;-79
2023/04/09 06:23:02;;;;;;;5.75;3.40;;;;;;;;;;4991906;28;20084;-79
2023/04/09 06:25:28;;;;;;;3.63;2.22;;;;;;;;;;4993995;28;20103;-79
2023/04/09 06:27:54;;;;;;;5.45;3.05;;;;;;;;;;4992493;28;20141;-85
2023/04/09 06:30:22;;;;;;;6.18;2.92;;;;;;;;;;4992559;28;20021;-81
2023/04/09 06:32:49;;;;;;;4.97;2.75;;;;;;;;;;4986317;28;20036;-82
2023/04/09 06:35:15;;;;;;;5.60;2.95;;;;;;;;;;4989002;28;20033;-79
2023/04/09 06:37:41;;;;;;;4.32;2.30;;;;;;;;;;4982825;28;20092;-81
2023/04/09 06:40:07;;;;;;;6.05;2.95;;;;;;;;;;4993218;28;20038;-80
2023/04/09 06:42:33;;;;;;;5.13;2.92;;;;;;;;;;4988741;28;20326;-79
2023/04/09 06:44:59;;;;;;;6.47;3.10;;;;;;;;;;4993164;28;20027;-79
2023/04/09 06:47:25;;;;;;;5.18;3.40;;;;;;;;;;4986811;28;20037;-79
2023/04/09 06:49:51;;;;;;;5.43;2.53;;;;;;;;;;4984540;28;20027;-78
2023/04/09 06:52:18;;;;;;;6.03;3.40;;;;;;;;;;4984677;28;20025;-78
2023/04/09 06:54:45;;;;;;;4.05;2.80;;;;;;;;;;4990706;28;20029;-79
2023/04/09 06:57:10;;;;;;;5.00;2.78;;;;;;;;;;4972056;28;20444;-79
2023/04/09 06:59:37;;;;;;;6.95;2.63;;;;;;;;;;4995557;28;20116;-79
2023/04/09 07:02:03;;;;;;;6.22;2.92;;;;;;;;;;4988422;28;20030;-79
2023/04/09 07:04:29;;;;;;;4.13;2.80;;;;;;;;;;4987057;28;20038;-79
2023/04/09 07:06:58;;;;;;;6.40;2.85;;;;;;;;;;4982789;28;20437;-77
2023/04/09 07:09:23;;;;;;;4.82;2.97;;;;;;;;;;4981298;28;20088;-78
2023/04/09 07:11:50;;;;;;;5.03;2.78;;;;;;;;;;4982677;28;20424;-77
2023/04/09 07:14:16;;;;;;;3.60;2.53;;;;;;;;;;4987207;28;20088;-77
2023/04/09 07:16:45;;;;;;;6.75;3.63;;;;;;;;;;4994303;28;20026;-78
2023/04/09 07:19:11;;;;;;;4.70;2.78;;;;;;;;;;4992869;28;20026;-79
2023/04/09 07:21:37;;;;;;;4.07;2.55;;;;;;;;;;4993829;28;20092;-78
2023/04/09 07:24:03;;;;;;;8.05;2.50;;;;;;;;;;4991608;28;20096;-78
2023/04/09 07:26:29;;;;;;;5.10;2.55;;;;;;;;;;4997080;28;20061;-77
2023/04/09 07:28:55;;;;;;;3.50;2.58;;;;;;;;;;4995237;28;20291;-78
2023/04/09 07:31:21;;;;;;;4.90;2.65;;;;;;;;;;4994524;28;20022;-78
2023/04/09 07:33:47;;;;;;;5.32;2.65;;;;;;;;;;4994992;28;20060;-78
2023/04/09 07:36:13;;;;;;;6.40;3.10;;;;;;;;;;5000294;28;20037;-79
2023/04/09 07:38:39;;;;;;;4.40;2.65;;;;;;;;;;4999583;28;20067;-79
2023/04/09 07:41:05;;;;;;;4.38;2.78;;;;;;;;;;4998374;28;20040;-81
2023/04/09 07:43:31;;;;;;;7.70;3.35;;;;;;;;;;4992569;28;20050;-85
2023/04/09 07:45:57;;;;;;;3.88;2.45;;;;;;;;;;4990507;28;20374;-80
2023/04/09 07:48:23;;;;;;;5.88;3.15;;;;;;;;;;4993000;28;20026;-84
2023/04/09 07:50:50;;;;;;;5.28;2.88;;;;;;;;;;4996062;28;20029;-83
2023/04/09 07:53:16;;;;;;;4.70;2.53;;;;;;;;;;4994993;28;20041;-77
2023/04/09 07:55:42;;;;;;;3.67;2.50;;;;;;;;;;4992016;28;20048;-88
2023/04/09 07:58:08;;;;;;;5.75;2.60;;;;;;;;;;4990284;28;20030;-80
2023/04/09 08:00:34;;;;;;;3.45;2.28;;;;;;;;;;4992652;28;20092;-80
2023/04/09 08:03:02;;;;;;;2.85;1.98;;;;;;;;;;4991649;28;20468;-85
2023/04/09 08:05:28;;;;;;;8.55;3.38;;;;;;;;;;4991631;28;20045;-84
2023/04/09 08:07:54;;;;;;;5.90;3.00;;;;;;;;;;4994350;28;20031;-83
2023/04/09 08:10:20;;;;;;;5.70;2.83;;;;;;;;;;4988353;28;20562;-81
2023/04/09 08:12:50;;;;;;;5.97;2.78;;;;;;;;;;4991032;28;20033;-81
2023/04/09 08:15:16;;;;;;;6.60;2.60;;;;;;;;;;4992242;28;20022;-79
2023/04/09 08:17:42;;;;;;;6.47;3.05;;;;;;;;;;4985021;28;20037;-80
2023/04/09 08:20:08;;;;;;;5.00;3.10;;;;;;;;;;4990519;28;20032;-82
2023/04/09 08:22:34;;;;;;;4.75;2.83;;;;;;;;;;4988861;28;20022;-85
2023/04/09 08:25:00;;;;;;;3.55;2.42;;;;;;;;;;4990280;28;20072;-80
2023/04/09 08:27:26;;;;;;;5.40;2.92;;;;;;;;;;4989144;28;20053;-75
2023/04/09 08:29:52;;;;;;;4.22;2.38;;;;;;;;;;4993601;28;20393;-77
2023/04/09 08:32:18;;;;;;;3.63;2.30;;;;;;;;;;4988409;28;20088;-83
2023/04/09 08:34:44;;;;;;;8.13;2.70;;;;;;;;;;4996943;28;20034;-79
2023/04/09 08:37:10;;;;;;;4.63;2.95;;;;;;;;;;4991371;28;20040;-82
2023/04/09 08:39:36;;;;;;;4.50;2.58;;;;;;;;;;4995331;28;20038;-91
2023/04/09 08:42:05;;;;;;;6.10;3.75;;;;;;;;;;4989980;28;20412;-76
2023/04/09 08:44:31;;;;;;;4.50;2.72;;;;;;;;;;4989382;28;20061;-79
2023/04/09 08:46:57;;;;;;;5.20;2.53;;;;;;;;;;4989720;28;20065;-80
2023/04/09 08:49:23;;;;;;;5.82;2.97;;;;;;;;;;4993870;28;20029;-84
2023/04/09 08:51:49;;;;;;;5.50;3.03;;;;;;;;;;4996547;28;20030;-82
2023/04/09 08:54:18;;;;;;;4.35;2.28;;;;;;;;;;4993965;28;20118;-84
2023/04/09 08:56:47;;;;;;;5.78;2.50;;;;;;;;;;5000301;28;20038;-84
2023/04/09 08:59:19;;;;;;;5.03;2.58;;;;;;;;;;4990494;28;20026;-73
2023/04/09 09:01:48;;;;;;;6.03;2.72;;;;;;;;;;4990949;28;20544;-81
2023/04/09 09:04:14;;;;;;;5.85;2.72;;;;;;;;;;4989064;28;20026;-84
2023/04/09 09:06:43;;;;;;;6.00;3.35;;;;;;;;;;4985633;28;20022;-81
2023/04/09 09:09:13;;;;;;;5.47;3.40;;;;;;;;;;4996077;28;20081;-80
2023/04/09 09:11:40;;;;;;;5.95;3.08;;;;;;;;;;4987713;28;20018;-81
2023/04/09 09:14:07;;;;;;;5.78;3.15;;;;;;;;;;4993202;28;20040;-83
2023/04/09 09:16:35;;;;;;;6.20;2.80;;;;;;;;;;4991537;28;20034;-85
2023/04/09 09:19:01;;;;;;;8.27;2.53;;;;;;;;;;4994218;28;20026;-84
2023/04/09 09:21:28;;;;;;;5.95;3.42;;;;;;;;;;4993888;28;20045;-80
2023/04/09 09:23:55;;;;;;;6.07;2.97;;;;;;;;;;5005188;28;20076;-80
2023/04/09 09:26:23;;;;;;;5.22;2.85;;;;;;;;;;4999467;28;20109;-79
2023/04/09 09:28:49;;;;;;;8.98;3.80;;;;;;;;;;5001488;28;20033;-78
2023/04/09 09:31:16;;;;;;;6.28;2.95;;;;;;;;;;5003207;28;20071;-80
2023/04/09 09:33:42;;;;;;;9.68;3.38;;;;;;;;;;4994646;28;20452;-77
2023/04/09 09:36:09;;;;;;;5.57;3.45;;;;;;;;;;4988904;28;20030;-77
2023/04/09 09:38:52;;;;;;;6.10;3.10;;;;;;;;;;4989839;28;20038;-78
2023/04/09 09:41:18;;;;;;;5.03;2.65;;;;;;;;;;4994475;28;20021;-77
2023/04/09 09:43:44;;;;;;;4.53;3.03;;;;;;;;;;4989985;28;20042;-79
2023/04/09 09:46:13;;;;;;;11.73;3.15;;;;;;;;;;4994732;28;20133;-78
2023/04/09 09:48:39;;;;;;;6.20;3.20;;;;;;;;;;4994910;28;20026;-79
2023/04/09 09:51:08;;;;;;;4.97;2.80;;;;;;;;;;4994673;28;20160;-79
2023/04/09 09:53:36;;;;;;;6.28;3.05;;;;;;;;;;4995158;28;20038;-80
2023/04/09 09:56:03;;;;;;;5.07;3.20;;;;;;;;;;4994806;28;20397;-77
2023/04/09 09:58:32;;;;;;;5.72;3.10;;;;;;;;;;4983600;28;20030;-76
2023/04/09 10:01:02;;;;;;;6.50;3.47;;;;;;;;;;4992981;28;20072;-77
2023/04/09 10:03:29;;;;;;;5.22;2.75;;;;;;;;;;4987506;28;20037;-77
2023/04/09 10:05:56;;;;;;;9.07;4.00;;;;;;;;;;4996989;28;20040;-76
2023/04/09 10:08:22;;;;;;;4.97;2.85;;;;;;;;;;4997762;28;20046;-76
2023/04/09 10:10:49;;;;;;;6.28;3.05;;;;;;;;;;4999044;28;20033;-78
2023/04/09 10:13:20;;;;;;;4.28;2.72;;;;;;;;;;4989620;28;20072;-76
2023/04/09 10:15:46;;;;;;;5.75;3.20;;;;;;;;;;4991231;28;20056;-72
2023/04/09 10:18:12;;;;;;;5.15;3.00;;;;;;;;;;4986542;28;21169;-72
2023/04/09 10:20:47;;;;;;;9.85;3.30;;;;;;;;;;4986541;28;20132;-77
2023/04/09 10:23:19;;;;;;;8.27;3.30;;;;;;;;;;4994255;28;20072;-77
2023/04/09 10:25:45;;;;;;;;;;;;;;;;;;4994414;28;20041;-79
2023/04/09 10:28:15;;;;;;;6.63;2.63;;;;;;;;;;4994182;28;19983;-84
2023/04/09 10:30:42;;;;;;;4.63;3.03;;;;;;;;;;4995435;28;20037;-81
2023/04/09 10:33:12;;;;;;;5.53;2.53;;;;;;;;;;4992405;28;20092;-89
2023/04/09 10:35:38;;;;;;;5.40;3.17;;;;;;;;;;4995193;28;20041;-81
2023/04/09 10:38:10;;;;;;;4.38;2.42;;;;;;;;;;5000102;28;20417;-92
2023/04/09 10:40:40;;;;;;;6.38;3.10;;;;;;;;;;4991589;28;20035;-81
2023/04/09 10:43:07;;;;;;;6.13;3.15;;;;;;;;;;4990240;28;20095;-80
2023/04/09 10:45:40;;;;;;;9.10;3.67;;;;;;;;;;4994221;28;20030;-86
2023/04/09 10:48:11;;;;;;;5.05;3.00;;;;;;;;;;4990986;28;20053;-82
2023/04/09 10:50:37;;;;;;;6.25;3.20;;;;;;;;;;4989661;28;20032;-80
2023/04/09 10:53:04;;;;;;;5.20;2.60;;;;;;;;;;4991128;28;20048;-83
2023/04/09 10:55:30;;;;;;;5.07;3.22;;;;;;;;;;4991069;28;20125;-81
2023/04/09 10:57:56;;;;;;;4.47;2.85;;;;;;;;;;4989925;28;20520;-78
2023/04/09 11:00:28;;;;;;;4.35;2.75;;;;;;;;;;4988307;28;20136;-83
2023/04/09 11:03:09;;;;;;;8.35;4.00;;;;;;;;;;4992508;28;20260;-79
2023/04/09 11:05:39;;;;;;;4.80;3.05;;;;;;;;;;4993945;28;20026;-78
2023/04/09 11:08:05;;;;;;;6.00;3.03;;;;;;;;;;4992999;28;20034;-82
2023/04/09 11:10:32;;;;;;;5.78;3.35;;;;;;;;;;4994547;28;20034;-91
2023/04/09 11:12:58;;;;;;;4.18;2.50;;;;;;;;;;4994181;28;20279;-82
2023/04/09 11:15:23;;;;;;;4.25;2.58;;;;;;;;;;4994660;28;20021;-78
2023/04/09 11:17:50;;;;;;;5.32;2.72;;;;;;;;;;4987311;28;20649;-82
2023/04/09 11:20:16;;;;;;;7.35;2.80;;;;;;;;;;4995505;28;20116;-85
2023/04/09 11:22:42;;;;;;;8.25;3.05;;;;;;;;;;4994823;28;20472;-77
2023/04/09 11:25:08;;;;;;;4.45;2.60;;;;;;;;;;4992275;28;20022;-79
2023/04/09 11:27:38;;;;;;;4.82;2.70;;;;;;;;;;4991003;28;20045;-77
2023/04/09 11:30:05;;;;;;;6.93;3.53;;;;;;;;;;4996859;28;20026;-77
2023/04/09 11:32:31;;;;;;;6.95;2.97;;;;;;;;;;4999908;28;20030;-75
2023/04/09 11:34:59;;;;;;;6.50;2.88;;;;;;;;;;4990138;28;20030;-76
2023/04/09 11:37:25;;;;;;;5.72;2.80;;;;;;;;;;4991637;28;20030;-76
2023/04/09 11:39:53;;;;;;;5.38;3.15;;;;;;;;;;4988481;28;20085;-75
2023/04/09 11:42:20;;;;;;;6.78;3.25;;;;;;;;;;4988826;28;20048;-76
2023/04/09 11:44:46;;;;;;;7.07;3.17;;;;;;;;;;4993917;28;20034;-77
2023/04/09 11:47:13;;;;;;;5.57;2.97;;;;;;;;;;4994249;28;20026;-82
2023/04/09 11:49:39;;;;;;;7.00;3.88;;;;;;;;;;4991757;28;20041;-79
2023/04/09 11:52:05;;;;;;;6.95;3.50;;;;;;;;;;4990758;28;20397;-72
2023/04/09 11:54:32;;;;;;;4.93;3.20;;;;;;;;;;4993339;28;20038;-79
2023/04/09 11:56:58;;;;;;;7.13;3.58;;;;;;;;;;4993141;28;20469;-78
2023/04/09 11:59:25;;;;;;;6.70;3.72;;;;;;;;;;4966659;28;20077;-81
2023/04/09 12:01:51;;;;;;;6.88;3.50;;;;;;;;;;4995339;28;20120;-79
2023/04/09 12:04:20;;;;;;;7.15;3.60;;;;;;;;;;4973128;28;20469;-79
2023/04/09 12:06:46;;;;;;;6.18;3.72;;;;;;;;;;4990105;28;20390;-80
2023/04/09 12:09:15;;;;;;;6.00;3.53;;;;;;;;;;4988367;28;20073;-78
2023/04/09 12:11:48;;;;;;;6.63;3.92;;;;;;;;;;4998071;28;20512;-82
2023/04/09 12:14:17;;;;;;;7.50;3.92;;;;;;;;;;4998364;28;20030;-80
2023/04/09 12:16:43;;;;;;;4.10;3.00;;;;;;;;;;5005151;28;20092;-79
2023/04/09 12:19:19;;;;;;;5.93;3.42;;;;;;;;;;5005025;28;20038;-76
2023/04/09 12:21:48;;;;;;;8.52;3.65;;;;;;;;;;5000306;28;20100;-79
2023/04/09 12:24:14;;;;;;;5.90;3.22;;;;;;;;;;4994983;28;20121;-80
2023/04/09 12:26:40;;;;;;;6.03;3.45;;;;;;;;;;4998225;28;20524;-80
2023/04/09 12:29:06;;;;;;;7.35;3.53;;;;;;;;;;5002089;28;20057;-80
2023/04/09 12:31:32;;;;;;;5.10;3.15;;;;;;;;;;4991399;28;20029;-84
2023/04/09 12:33:58;;;;;;;5.20;3.03;;;;;;;;;;4994332;28;20029;-85
2023/04/09 12:36:25;;;;;;;8.38;2.95;;;;;;;;;;4992734;28;20029;-84
2023/04/09 12:38:51;;;;;;;7.05;3.78;;;;;;;;;;4999258;28;20030;-84
2023/04/09 12:41:17;;;;;;;9.88;3.78;;;;;;;;;;5001041;28;20500;-87
2023/04/09 12:43:43;;;;;;;5.05;2.88;;;;;;;;;;4998601;28;20042;-85
2023/04/09 12:46:12;;;;;;;6.85;3.47;;;;;;;;;;4998806;28;20543;-85
2023/04/09 12:48:39;;;;;;;5.45;3.10;;;;;;;;;;4991218;28;20052;-84
2023/04/09 12:51:10;;;;;;;9.05;3.70;;;;;;;;;;4994884;28;20105;-84
2023/04/09 12:53:36;;;;;;;4.32;2.67;;;;;;;;;;4991391;28;20037;-84
2023/04/09 12:56:02;;;;;;;6.15;3.33;;;;;;;;;;4996024;28;20039;-84
2023/04/09 12:58:28;;;;;;;6.35;3.72;;;;;;;;;;4993991;28;20068;-84
2023/04/09 13:00:55;;;;;;;5.07;3.33;;;;;;;;;;4997377;28;20358;-84
2023/04/09 13:03:22;;;;;;;6.35;3.50;;;;;;;;;;4995971;28;20101;-84
2023/04/09 13:05:48;;;;;;;7.75;3.92;;;;;;;;;;4993464;28;20022;-83
2023/04/09 13:08:15;;;;;;;7.43;3.58;;;;;;;;;;4999186;28;20037;-84
2023/04/09 13:10:41;;;;;;;6.32;3.50;;;;;;;;;;4995084;28;20533;-79
2023/04/09 13:13:10;;;;;;;6.50;3.75;;;;;;;;;;4994525;28;20107;-81
2023/04/09 13:15:43;;;;;;;6.95;3.03;;;;;;;;;;4997086;28;20117;-80
2023/04/09 13:18:10;;;;;;;8.80;3.58;;;;;;;;;;4993330;28;20034;-79
2023/04/09 13:20:37;;;;;;;5.13;3.20;;;;;;;;;;4998109;28;20120;-79
2023/04/09 13:23:03;;;;;;;5.47;3.20;;;;;;;;;;4994227;28;20034;-77
2023/04/09 13:25:29;;;;;;;6.82;4.00;;;;;;;;;;4992664;28;20032;-78
2023/04/09 13:27:55;;;;;;;4.78;2.97;;;;;;;;;;4989989;28;20026;-78
2023/04/09 13:30:21;;;;;;;6.28;3.53;;;;;;;;;;4996603;28;20041;-78
2023/04/09 13:32:47;;;;;;;7.55;3.63;;;;;;;;;;5002415;28;20051;-77
2023/04/09 13:35:13;;;;;;;8.15;3.53;;;;;;;;;;4998181;28;20551;-79
2023/04/09 13:37:39;;;;;;;7.15;3.35;;;;;;;;;;4994796;28;20022;-81
2023/04/09 13:40:07;;;;;;;9.60;3.65;;;;;;;;;;4988879;28;20026;-78
2023/04/09 13:42:37;;;;;;;6.40;3.45;;;;;;;;;;4989560;28;20393;-77
2023/04/09 13:45:03;;;;;;;6.93;3.50;;;;;;;;;;4990231;28;20034;-76
2023/04/09 13:47:29;;;;;;;5.63;3.28;;;;;;;;;;4994956;28;20187;-76
2023/04/09 13:49:55;;;;;;;6.03;3.80;;;;;;;;;;5000294;28;20120;-76
2023/04/09 13:52:22;;;;;;;6.18;3.22;;;;;;;;;;4994337;28;20616;-76
2023/04/09 13:54:48;;;;;;;9.05;3.88;;;;;;;;;;4985872;28;20040;-77
2023/04/09 13:57:15;;;;;;;6.47;3.33;;;;;;;;;;4993534;28;20025;-77
2023/04/09 13:59:42;;;;;;;8.38;4.43;;;;;;;;;;4991769;28;21139;-76
2023/04/09 14:02:08;;;;;;;8.13;3.60;;;;;;;;;;4990318;28;20034;-76
2023/04/09 14:04:34;;;;;;;9.57;4.57;;;;;;;;;;4986907;28;20057;-79
2023/04/09 14:07:00;;;;;;;10.57;3.92;;;;;;;;;;4994913;28;20033;-76
2023/04/09 14:09:26;;;;;;;6.13;3.35;;;;;;;;;;4994891;28;20092;-74
2023/04/09 14:11:53;;;;;;;5.97;3.30;;;;;;;;;;4993829;28;20025;-81
2023/04/09 14:14:20;;;;;;;6.07;3.35;;;;;;;;;;4996169;28;20038;-80
2023/04/09 14:16:47;;;;;;;12.05;3.90;;;;;;;;;;4988986;28;20022;-76
2023/04/09 14:19:13;;;;;;;6.82;3.78;;;;;;;;;;4992170;28;20030;-78
2023/04/09 14:21:40;;;;;;;7.28;4.07;;;;;;;;;;4990960;28;20484;-76
2023/04/09 14:24:06;;;;;;;9.18;4.90;;;;;;;;;;4987884;28;20052;-76
2023/04/09 14:26:32;;;;;;;7.13;3.50;;;;;;;;;;4990583;28;20018;-77
2023/04/09 14:28:58;;;;;;;8.43;4.10;;;;;;;;;;4998732;28;20399;-74
2023/04/09 14:31:24;;;;;;;10.23;4.40;;;;;;;;;;4991627;28;20033;-79
2023/04/09 14:33:50;;;;;;;9.30;4.13;;;;;;;;;;4992009;28;20037;-77
2023/04/09 14:36:20;;;;;;;6.55;3.38;;;;;;;;;;4992107;28;20034;-76
2023/04/09 14:38:47;;;;;;;7.85;4.10;;;;;;;;;;4998124;28;20488;-77
2023/04/09 14:41:14;;;;;;;9.98;3.78;;;;;;;;;;4990212;28;20499;-76